Time;durP1;ratioP1;P1;durP2;ratioP2;P2;SDS_P1;SDS_P2;PMS_P1;PMS_P2;Temp;Humidity;BMP_temperature;BMP_pressure;BME280_temperature;BME280_humidity;BME280_pressure;Samples;Min_cycle;Max_cycle;Signal;HPM_P1;HPM_P2
2022/11/18 00:01:53;;;;;;;0.50;0.10;;;11.20;99.90;;;;;;4949048;29;20459;-79
2022/11/18 00:04:21;;;;;;;0.50;0.10;;;11.20;99.90;;;;;;4949614;29;20467;-79
2022/11/18 00:06:50;;;;;;;0.50;0.10;;;11.10;99.90;;;;;;4951683;29;20483;-80
2022/11/18 00:09:20;;;;;;;0.50;0.10;;;11.10;99.90;;;;;;4949943;29;20483;-80
2022/11/18 00:14:35;;;;;;;0.50;0.10;;;11.10;99.90;;;;;;4946171;29;20475;-80
2022/11/18 00:17:05;;;;;;;0.50;0.10;;;11.10;99.90;;;;;;4950547;29;20480;-79
2022/11/18 00:19:34;;;;;;;0.50;0.10;;;11.10;99.90;;;;;;4948013;29;20444;-81
2022/11/18 00:22:03;;;;;;;0.50;0.10;;;;;;;;;;4949429;29;20460;-79
2022/11/18 00:24:31;;;;;;;0.50;0.10;;;11.30;99.90;;;;;;4946644;29;20448;-79
2022/11/18 00:27:00;;;;;;;0.50;0.10;;;11.30;99.90;;;;;;4946736;29;20486;-79
2022/11/18 00:29:30;;;;;;;0.50;0.10;;;11.30;99.90;;;;;;4948130;29;20446;-81
2022/11/18 00:31:59;;;;;;;0.50;0.10;;;11.30;99.90;;;;;;4947806;29;20961;-81
2022/11/18 00:34:27;;;;;;;0.50;0.10;;;11.30;99.90;;;;;;4947708;29;20483;-81
2022/11/18 00:36:55;;;;;;;0.50;0.10;;;11.30;99.90;;;;;;4948446;29;20475;-79
2022/11/18 00:39:23;;;;;;;0.50;0.10;;;;;;;;;;4949747;29;20471;-80
2022/11/18 00:44:38;;;;;;;0.50;0.10;;;11.30;99.90;;;;;;4947332;29;20970;-80
2022/11/18 00:47:06;;;;;;;0.50;0.10;;;11.20;99.90;;;;;;4947999;29;20551;-80
2022/11/18 00:49:34;;;;;;;0.50;0.10;;;11.20;99.90;;;;;;4954713;29;20451;-80
2022/11/18 00:52:02;;;;;;;0.50;0.10;;;11.20;99.90;;;;;;4954072;29;20452;-79
2022/11/18 00:54:30;;;;;;;0.50;0.10;;;11.20;99.90;;;;;;4950401;29;20475;-78
2022/11/18 00:56:58;;;;;;;0.50;0.10;;;11.10;99.90;;;;;;4952078;29;20495;-80
2022/11/18 00:59:26;;;;;;;0.50;0.10;;;11.40;99.90;;;;;;4954055;29;20467;-81
2022/11/18 05:01:06;;;;;;;0.50;0.10;;;10.70;99.90;;;;;;5686758;23;20531;-78
2022/11/18 05:03:34;;;;;;;0.50;0.10;;;10.60;99.90;;;;;;4913102;29;20744;-79
2022/11/18 05:06:02;;;;;;;3.80;3.50;;;10.60;99.90;;;;;;4912975;29;20481;-78
2022/11/18 05:08:29;;;;;;;0.50;0.10;;;10.60;99.90;;;;;;4913754;29;20442;-79
2022/11/18 05:12:47;;;;;;;0.50;0.10;;;10.60;99.90;;;;;;4912056;29;20465;-78
2022/11/18 05:13:45;;;;;;;0.50;0.10;;;10.60;99.90;;;;;;4914028;29;20553;-77
2022/11/18 05:16:14;;;;;;;4.13;1.80;;;10.70;99.90;;;;;;4908270;29;20458;-78
2022/11/18 05:18:43;;;;;;;0.50;0.10;;;10.70;99.90;;;;;;4911941;29;20477;-78
2022/11/18 05:21:11;;;;;;;0.50;0.10;;;10.70;99.90;;;;;;4907832;29;20487;-77
2022/11/18 05:23:38;;;;;;;1.07;1.07;;;10.70;99.90;;;;;;4911091;29;20438;-77
2022/11/18 05:26:08;;;;;;;0.50;0.30;;;10.80;99.90;;;;;;4914126;29;20441;-78
2022/11/18 05:28:36;;;;;;;0.60;0.43;;;10.70;99.90;;;;;;4914619;29;20513;-77
2022/11/18 05:31:07;;;;;;;0.50;0.10;;;10.60;99.90;;;;;;4908967;29;21020;-78
2022/11/18 05:36:13;;;;;;;0.50;0.10;;;10.60;99.90;;;;;;4891340;29;20502;-80
2022/11/18 05:38:41;;;;;;;0.50;0.10;;;10.70;99.90;;;;;;4888081;29;20443;-79
2022/11/18 05:43:09;;;;;;;1.33;0.40;;;10.70;99.90;;;;;;4895182;29;20510;-80
2022/11/18 05:43:57;;;;;;;0.50;0.10;;;10.60;99.90;;;;;;4895644;29;20474;-80
2022/11/18 05:46:26;;;;;;;0.50;0.10;;;10.60;99.90;;;;;;4894040;29;20953;-80
2022/11/18 05:48:54;;;;;;;0.50;0.10;;;10.60;99.90;;;;;;4892772;29;20466;-80
2022/11/18 05:51:24;;;;;;;0.50;0.10;;;10.60;99.90;;;;;;4893241;29;20463;-81
2022/11/18 05:53:53;;;;;;;0.50;0.10;;;10.60;99.90;;;;;;4890783;29;20497;-79
2022/11/18 05:56:25;;;;;;;0.50;0.20;;;10.70;99.90;;;;;;4892703;29;20438;-79
2022/11/18 05:58:53;;;;;;;0.50;0.10;;;10.70;99.90;;;;;;4893623;29;20465;-81
2022/11/18 06:01:25;;;;;;;0.50;0.20;;;10.70;99.90;;;;;;4904571;29;20840;-81
2022/11/18 06:03:53;;;;;;;0.50;0.20;;;10.70;99.90;;;;;;4894269;29;20485;-81
2022/11/18 06:06:24;;;;;;;0.50;0.20;;;10.80;99.90;;;;;;4893514;29;20855;-80
2022/11/18 06:08:58;;;;;;;1.90;1.63;;;10.70;99.90;;;;;;4891135;29;20462;-80
2022/11/18 06:11:30;;;;;;;0.50;0.20;;;12.30;99.90;;;;;;4889804;29;20474;-80
2022/11/18 06:14:04;;;;;;;1.03;1.03;;;10.90;99.90;;;;;;4892307;29;20506;-81
2022/11/18 06:16:33;;;;;;;0.50;0.10;;;10.80;99.90;;;;;;4891044;29;20453;-80
2022/11/18 06:19:08;;;;;;;0.50;0.10;;;10.80;99.90;;;;;;4892806;29;20442;-81
2022/11/18 06:21:38;;;;;;;2.10;1.13;;;;;;;;;;4884656;29;20447;-78
2022/11/18 06:24:08;;;;;;;0.50;0.10;;;10.90;99.90;;;;;;4884417;29;20840;-76
2022/11/18 06:26:36;;;;;;;0.50;0.10;;;12.20;99.90;;;;;;4919922;29;20434;-80
2022/11/18 06:29:06;;;;;;;0.50;0.10;;;10.90;99.90;;;;;;4901645;29;20816;-81
2022/11/18 06:31:33;;;;;;;0.50;0.10;;;10.90;99.90;;;;;;4882808;29;20458;-81
2022/11/18 06:34:01;;;;;;;0.60;0.30;;;10.90;99.90;;;;;;4896653;29;20493;-81
2022/11/18 06:36:29;;;;;;;0.50;0.20;;;10.80;99.90;;;;;;4895823;29;20486;-83
2022/11/18 06:39:03;;;;;;;0.50;0.10;;;10.80;99.90;;;;;;4892465;29;20454;-80
2022/11/18 06:41:31;;;;;;;0.50;0.10;;;10.80;99.90;;;;;;4893845;29;20451;-80
2022/11/18 06:43:59;;;;;;;0.50;0.10;;;10.80;99.90;;;;;;4897749;29;20475;-80
2022/11/18 06:49:12;;;;;;;0.50;0.10;;;10.80;99.90;;;;;;4887459;29;20545;-77
2022/11/18 06:51:40;;;;;;;0.50;0.10;;;10.80;99.90;;;;;;4892676;29;20720;-79
2022/11/18 06:54:10;;;;;;;0.50;0.10;;;;;;;;;;4905212;29;20501;-82
2022/11/18 06:56:38;;;;;;;0.50;0.10;;;;;;;;;;4906318;29;20443;-80
2022/11/18 06:59:07;;;;;;;0.50;0.10;;;10.80;99.90;;;;;;4899232;29;20545;-81
2022/11/18 07:01:36;;;;;;;0.50;0.10;;;10.80;99.90;;;;;;4898866;29;20450;-81
2022/11/18 07:04:05;;;;;;;0.50;0.10;;;10.80;99.90;;;;;;4899796;29;20970;-80
2022/11/18 07:06:35;;;;;;;0.50;0.10;;;10.90;99.90;;;;;;4897597;29;20454;-80
2022/11/18 07:09:04;;;;;;;0.50;0.10;;;10.80;99.90;;;;;;4895610;29;20458;-81
2022/11/18 07:11:37;;;;;;;0.50;0.10;;;10.90;99.90;;;;;;4897787;29;20450;-80
2022/11/18 07:14:06;;;;;;;0.50;0.10;;;10.90;99.90;;;;;;4893177;29;20471;-81
2022/11/18 07:16:35;;;;;;;0.50;0.10;;;10.90;99.90;;;;;;4892289;29;20439;-81
2022/11/18 07:19:09;;;;;;;0.50;0.10;;;10.90;99.90;;;;;;4897974;29;20514;-81
2022/11/18 07:21:37;;;;;;;0.50;0.10;;;11.00;99.90;;;;;;4901689;29;20502;-80
2022/11/18 07:24:06;;;;;;;0.50;0.10;;;11.00;99.90;;;;;;4899485;29;20467;-82
2022/11/18 07:26:36;;;;;;;0.50;0.10;;;11.00;99.90;;;;;;4899799;29;20463;-79
2022/11/18 07:29:04;;;;;;;0.50;0.10;;;11.10;99.90;;;;;;4909089;29;20457;-81
2022/11/18 07:31:33;;;;;;;0.60;0.30;;;11.10;99.90;;;;;;4899211;29;20452;-81
2022/11/18 07:34:01;;;;;;;0.50;0.10;;;11.10;99.90;;;;;;4900408;29;20474;-78
2022/11/18 07:36:34;;;;;;;0.50;0.10;;;11.10;99.90;;;;;;4898311;29;20443;-81
2022/11/18 07:39:05;;;;;;;1.20;1.13;;;11.10;99.90;;;;;;4895612;29;20446;-79
2022/11/18 07:41:34;;;;;;;0.50;0.10;;;11.10;99.90;;;;;;4898637;29;20455;-79
2022/11/18 07:44:05;;;;;;;0.50;0.10;;;11.20;99.90;;;;;;4899403;29;20473;-82
2022/11/18 07:46:34;;;;;;;0.50;0.10;;;11.10;99.90;;;;;;4916735;29;20446;-81
2022/11/18 07:49:05;;;;;;;0.50;0.10;;;11.20;99.90;;;;;;4910165;29;20884;-81
2022/11/18 07:51:35;;;;;;;0.50;0.10;;;11.10;99.90;;;;;;4910191;29;20458;-79
2022/11/18 07:54:07;;;;;;;0.50;0.10;;;11.10;99.90;;;;;;4909712;29;20484;-81
2022/11/18 07:56:35;;;;;;;0.50;0.10;;;10.20;99.90;;;;;;4909839;29;20838;-79
2022/11/18 07:59:04;;;;;;;0.50;0.10;;;11.10;99.90;;;;;;4909617;29;20458;-79
2022/11/18 08:01:33;;;;;;;0.50;0.10;;;11.10;99.90;;;;;;4910178;29;20453;-82
2022/11/18 08:04:06;;;;;;;0.50;0.10;;;11.10;99.90;;;;;;4909022;29;20484;-80
2022/11/18 08:06:35;;;;;;;1.90;1.80;;;11.10;99.90;;;;;;4912243;29;20471;-79
2022/11/18 08:09:04;;;;;;;0.50;0.10;;;10.90;99.90;;;;;;4912097;29;20448;-79
2022/11/18 08:11:33;;;;;;;0.60;0.33;;;10.80;99.90;;;;;;4905816;29;20445;-80
2022/11/18 08:14:01;;;;;;;0.50;0.20;;;10.80;99.90;;;;;;4911597;29;20449;-80
2022/11/18 08:16:30;;;;;;;0.50;0.10;;;12.00;99.90;;;;;;4919884;29;20968;-80
2022/11/18 08:18:59;;;;;;;0.50;0.10;;;10.70;99.90;;;;;;4917843;29;20462;-80
2022/11/18 08:21:27;;;;;;;0.50;0.10;;;10.80;99.90;;;;;;4900458;29;20479;-80
2022/11/18 08:23:58;;;;;;;0.50;0.10;;;10.70;99.90;;;;;;4896405;29;20478;-80
2022/11/18 08:26:26;;;;;;;0.80;0.77;;;10.70;99.90;;;;;;4894399;29;20469;-81
2022/11/18 08:28:54;;;;;;;3.03;2.07;;;10.70;99.90;;;;;;4892888;29;20530;-81
2022/11/18 08:31:24;;;;;;;3.60;1.80;;;10.70;99.90;;;;;;4893839;29;20476;-81
2022/11/18 08:33:56;;;;;;;3.23;0.70;;;10.60;99.90;;;;;;4894571;29;20494;-80
2022/11/18 08:36:26;;;;;;;1.63;1.53;;;10.60;99.90;;;;;;4895535;29;20581;-81
2022/11/18 08:38:56;;;;;;;0.60;0.50;;;10.70;99.90;;;;;;4893812;29;20836;-79
2022/11/18 08:41:30;;;;;;;0.50;0.13;;;10.70;99.90;;;;;;4893925;29;20463;-82
2022/11/18 08:43:59;;;;;;;0.60;0.20;;;10.90;99.90;;;;;;4893860;29;20484;-81
2022/11/18 08:46:27;;;;;;;0.50;0.10;;;10.70;99.90;;;;;;4908979;29;20450;-81
2022/11/18 08:48:56;;;;;;;0.60;0.50;;;10.70;99.90;;;;;;4901150;29;20462;-80
2022/11/18 08:51:25;;;;;;;0.50;0.20;;;10.70;99.90;;;;;;4896602;29;20447;-80
2022/11/18 08:53:54;;;;;;;0.50;0.20;;;;;;;;;;4896072;29;20531;-79
2022/11/18 08:56:24;;;;;;;0.53;0.20;;;10.70;99.90;;;;;;4896120;29;20581;-81
2022/11/18 08:58:53;;;;;;;0.50;0.10;;;10.70;99.90;;;;;;4905525;29;20482;-80
2022/11/18 09:01:21;;;;;;;0.80;0.80;;;10.60;99.90;;;;;;4907631;29;20449;-79
2022/11/18 09:03:50;;;;;;;1.53;1.43;;;10.60;99.90;;;;;;4907915;29;20572;-80
2022/11/18 09:06:23;;;;;;;4.93;3.67;;;10.60;99.90;;;;;;4909105;29;20492;-79
2022/11/18 09:08:52;;;;;;;0.50;0.30;;;10.60;99.90;;;;;;4908960;29;20432;-80
2022/11/18 09:11:21;;;;;;;0.50;0.10;;;10.50;99.90;;;;;;4883445;29;20482;-79
2022/11/18 09:13:52;;;;;;;0.87;0.70;;;10.50;1.00;;;;;;4895246;29;20548;-80
2022/11/18 09:16:40;;;;;;;2.60;2.40;;;10.50;1.00;;;;;;4883520;29;20977;-81
2022/11/18 09:19:08;;;;;;;1.63;1.00;;;10.50;1.00;;;;;;4890144;29;20478;-80
2022/11/18 09:21:57;;;;;;;1.27;1.17;;;10.40;1.00;;;;;;4894454;29;20447;-78
2022/11/18 09:24:25;;;;;;;5.90;1.30;;;10.40;1.00;;;;;;4893991;29;20474;-81
2022/11/18 09:26:53;;;;;;;0.50;0.20;;;10.40;1.00;;;;;;4908457;29;20464;-80
2022/11/18 09:29:24;;;;;;;0.93;0.30;;;10.30;1.00;;;;;;4914059;29;21028;-80
2022/11/18 09:31:52;;;;;;;0.50;0.10;;;10.30;1.00;;;;;;4910318;29;20453;-80
2022/11/18 09:34:20;;;;;;;0.50;0.10;;;10.30;1.00;;;;;;4907959;29;20548;-80
2022/11/18 09:36:48;;;;;;;0.50;0.10;;;10.40;1.00;;;;;;4907494;29;20505;-79
2022/11/18 09:39:18;;;;;;;0.50;0.20;;;10.40;1.00;;;;;;4907649;29;20881;-79
2022/11/18 09:41:48;;;;;;;2.00;0.87;;;10.50;1.00;;;;;;4892228;29;20515;-80
2022/11/18 09:44:31;;;;;;;0.97;0.97;;;10.50;1.00;;;;;;4888837;29;20467;-78
2022/11/18 09:47:09;;;;;;;0.50;0.10;;;10.50;1.00;;;;;;4888894;29;20466;-79
2022/11/18 09:49:40;;;;;;;0.50;0.10;;;10.50;1.00;;;;;;4886193;29;20455;-81
2022/11/18 09:52:16;;;;;;;0.50;0.23;;;10.50;1.00;;;;;;4876395;29;20545;-80
2022/11/18 09:54:45;;;;;;;0.83;0.83;;;10.50;1.00;;;;;;4876024;29;20480;-80
2022/11/18 09:57:16;;;;;;;2.00;1.13;;;;;;;;;;4875014;29;20582;-81
2022/11/18 09:59:44;;;;;;;0.50;0.13;;;;;;;;;;4884441;29;20451;-79
2022/11/18 10:02:34;;;;;;;0.97;0.40;;;10.50;1.00;;;;;;4899075;29;20450;-77
2022/11/18 10:05:15;;;;;;;0.50;0.10;;;10.50;1.00;;;;;;4902929;29;20453;-79
2022/11/18 10:07:51;;;;;;;0.60;0.40;;;10.60;1.00;;;;;;4897019;29;20454;-79
2022/11/18 10:10:25;;;;;;;0.50;0.10;;;10.70;1.00;;;;;;4891765;29;20538;-80
2022/11/18 10:13:00;;;;;;;0.50;0.10;;;10.70;1.00;;;;;;4892273;29;20490;-81
2022/11/18 10:15:36;;;;;;;6.63;1.70;;;10.70;1.00;;;;;;4894074;29;20526;-79
2022/11/18 10:18:18;;;;;;;0.50;0.10;;;10.80;1.00;;;;;;4889629;29;20481;-81
2022/11/18 10:21:18;;;;;;;0.50;0.20;;;10.80;1.00;;;;;;4890634;29;20478;-81
2022/11/18 10:23:53;;;;;;;0.50;0.10;;;10.90;99.90;;;;;;4891757;29;20477;-79
2022/11/18 10:26:37;;;;;;;0.50;0.10;;;10.90;99.90;;;;;;4885605;29;20474;-80
2022/11/18 10:29:08;;;;;;;0.50;0.10;;;10.90;99.90;;;;;;4895979;29;20510;-80
2022/11/18 10:31:37;;;;;;;0.50;0.10;;;11.10;99.90;;;;;;4900307;29;20458;-80
2022/11/18 10:34:06;;;;;;;0.50;0.30;;;;;;;;;;4918014;29;20520;-80
2022/11/18 10:36:35;;;;;;;2.47;0.47;;;11.10;99.90;;;;;;4917743;29;20485;-80
2022/11/18 10:39:21;;;;;;;0.50;0.20;;;11.10;99.90;;;;;;4914620;29;20433;-79
2022/11/18 10:41:57;;;;;;;0.50;0.20;;;11.10;99.90;;;;;;4910321;29;20456;-80
2022/11/18 10:44:34;;;;;;;0.50;0.10;;;10.30;99.90;;;;;;4907109;29;20473;-80
2022/11/18 10:47:21;;;;;;;0.70;0.70;;;10.90;99.90;;;;;;4906132;29;20494;-79
2022/11/18 10:49:50;;;;;;;2.23;2.00;;;10.80;99.90;;;;;;4892862;29;20450;-79
2022/11/18 10:52:18;;;;;;;1.53;0.50;;;10.80;99.90;;;;;;4888899;29;20462;-79
2022/11/18 10:54:46;;;;;;;98.00;57.47;;;;;;;;;;4891983;29;20469;-79
2022/11/18 10:57:19;;;;;;;0.50;0.10;;;10.70;99.90;;;;;;4906645;29;20489;-79
2022/11/18 10:59:51;;;;;;;0.90;0.60;;;10.80;99.90;;;;;;4907218;29;20453;-80
2022/11/18 11:02:29;;;;;;;1.43;0.97;;;10.90;99.90;;;;;;4907896;29;20465;-80
2022/11/18 11:04:59;;;;;;;5.13;1.77;;;10.90;99.90;;;;;;4903060;29;20477;-80
2022/11/18 11:07:30;;;;;;;0.70;0.50;;;10.90;99.90;;;;;;4888451;29;20459;-80
2022/11/18 11:10:18;;;;;;;1.27;0.67;;;10.80;99.90;;;;;;4892017;29;20486;-80
2022/11/18 11:12:53;;;;;;;0.83;0.50;;;10.80;99.90;;;;;;4888859;29;20472;-80
2022/11/18 11:15:26;;;;;;;0.50;0.10;;;10.80;99.90;;;;;;4887571;29;20465;-79
2022/11/18 11:20:51;;;;;;;0.73;0.60;;;10.90;99.90;;;;;;4891986;29;20824;-83
2022/11/18 11:23:19;;;;;;;0.50;0.10;;;11.00;99.90;;;;;;4894421;29;20535;-81
2022/11/18 11:25:55;;;;;;;0.50;0.10;;;11.00;99.90;;;;;;4898549;29;20470;-81
2022/11/18 11:28:53;;;;;;;0.50;0.10;;;11.00;99.90;;;;;;4898243;29;20443;-80
2022/11/18 11:31:35;;;;;;;0.60;0.40;;;11.10;99.90;;;;;;4889741;29;20447;-80
2022/11/18 11:34:11;;;;;;;0.50;0.10;;;11.10;99.90;;;;;;4902049;29;20506;-80
2022/11/18 11:36:48;;;;;;;2.07;1.97;;;11.10;99.90;;;;;;4913505;29;20694;-80
2022/11/18 11:39:42;;;;;;;0.50;0.10;;;11.10;99.90;;;;;;4913627;29;20545;-80
2022/11/18 11:42:24;;;;;;;0.50;0.10;;;11.20;99.90;;;;;;4899376;29;20482;-79
2022/11/18 11:45:05;;;;;;;0.60;0.30;;;;;;;;;;4885114;29;20463;-81
2022/11/18 11:48:02;;;;;;;0.50;0.10;;;11.20;99.90;;;;;;4879232;29;20455;-79
2022/11/18 11:50:52;;;;;;;0.50;0.20;;;11.30;99.90;;;;;;4887489;29;20520;-80
2022/11/18 11:53:49;;;;;;;0.50;0.10;;;11.30;99.90;;;;;;4894326;29;20534;-80
2022/11/18 11:56:23;;;;;;;0.50;0.10;;;11.40;99.90;;;;;;4886036;29;20534;-80
2022/11/18 11:59:10;;;;;;;0.50;0.10;;;11.50;99.90;;;;;;4877789;29;20459;-80
2022/11/18 12:02:14;;;;;;;1.80;0.70;;;11.60;99.90;;;;;;4877128;29;20448;-81
2022/11/18 12:04:49;;;;;;;1.73;0.73;;;11.50;99.90;;;;;;4893023;29;20454;-80
2022/11/18 12:07:21;;;;;;;1.23;0.40;;;11.50;99.90;;;;;;4909693;29;20469;-78
2022/11/18 12:10:08;;;;;;;0.50;0.10;;;11.50;99.90;;;;;;4914976;29;20453;-80
2022/11/18 12:12:45;;;;;;;0.50;0.10;;;11.50;99.90;;;;;;4876471;29;20443;-79
2022/11/18 12:15:25;;;;;;;0.50;0.30;;;11.60;99.90;;;;;;4883487;29;20447;-79
2022/11/18 12:18:04;;;;;;;0.60;0.40;;;11.60;99.90;;;;;;4896565;29;20576;-81
2022/11/18 12:20:44;;;;;;;1.10;0.73;;;11.60;99.90;;;;;;4896807;29;20502;-80
2022/11/18 12:23:19;;;;;;;0.50;0.10;;;11.70;99.90;;;;;;4893171;29;20486;-79
2022/11/18 12:26:02;;;;;;;0.53;0.20;;;11.70;99.90;;;;;;4894357;29;20485;-80
2022/11/18 12:28:37;;;;;;;0.83;0.57;;;11.80;99.90;;;;;;4891203;29;20506;-80
2022/11/18 12:31:31;;;;;;;0.60;0.27;;;11.90;99.90;;;;;;4900168;29;20437;-80
2022/11/18 12:34:27;;;;;;;0.60;0.40;;;12.00;99.90;;;;;;4900171;29;20454;-80
2022/11/18 12:36:56;;;;;;;1.57;0.77;;;12.00;99.90;;;;;;4901294;29;20539;-80
2022/11/18 12:39:50;;;;;;;0.50;0.10;;;12.00;99.90;;;;;;4899735;29;20542;-80
2022/11/18 12:46:00;;;;;;;0.50;0.13;;;12.10;99.90;;;;;;4880924;29;20478;-80
2022/11/18 12:48:39;;;;;;;0.50;0.10;;;12.10;99.90;;;;;;4885412;29;20502;-79
2022/11/18 12:51:43;;;;;;;0.60;0.20;;;12.10;99.90;;;;;;4883114;29;20463;-78
2022/11/18 12:54:31;;;;;;;0.50;0.10;;;12.10;99.90;;;;;;4880331;29;20475;-79
2022/11/18 12:57:02;;;;;;;0.50;0.10;;;12.10;99.90;;;;;;4882236;29;20515;-78
2022/11/18 12:59:33;;;;;;;0.70;0.50;;;12.10;99.90;;;;;;4901097;29;20459;-79
2022/11/18 13:02:22;;;;;;;0.50;0.20;;;11.90;99.90;;;;;;4900798;29;20451;-79
2022/11/18 13:05:05;;;;;;;0.50;0.10;;;;;;;;;;4902439;29;20478;-79
2022/11/18 13:10:29;;;;;;;0.87;0.40;;;11.70;99.90;;;;;;4901730;29;20446;-79
2022/11/18 13:12:57;;;;;;;0.50;0.10;;;11.70;99.90;;;;;;4899967;29;20602;-80
2022/11/18 13:18:16;;;;;;;0.50;0.20;;;11.60;99.90;;;;;;4895586;29;20490;-80
2022/11/18 13:20:54;;;;;;;0.50;0.10;;;11.50;99.90;;;;;;4913505;29;20520;-80
2022/11/18 13:26:29;;;;;;;0.50;0.10;;;11.40;99.90;;;;;;4900980;29;20459;-79
2022/11/18 13:29:14;;;;;;;0.70;0.40;;;11.40;99.90;;;;;;4915123;29;20465;-79
2022/11/18 13:31:49;;;;;;;0.50;0.10;;;11.40;99.90;;;;;;4919713;29;20457;-79
2022/11/18 13:34:20;;;;;;;0.50;0.10;;;11.40;99.90;;;;;;4914575;29;21035;-79
2022/11/18 13:36:50;;;;;;;0.50;0.10;;;11.50;99.90;;;;;;4900483;29;20507;-79
2022/11/18 13:39:22;;;;;;;0.50;0.20;;;11.50;99.90;;;;;;4896063;29;20474;-80
2022/11/18 13:42:02;;;;;;;0.50;0.20;;;11.60;99.90;;;;;;4901023;29;20447;-80
2022/11/18 13:44:33;;;;;;;0.50;0.10;;;11.60;99.90;;;;;;4901317;29;20503;-80
2022/11/18 13:47:06;;;;;;;0.60;0.20;;;11.50;99.90;;;;;;4901831;29;20458;-79
2022/11/18 13:49:47;;;;;;;0.50;0.10;;;11.50;99.90;;;;;;4900288;29;20519;-80
2022/11/18 13:52:21;;;;;;;0.50;0.17;;;11.50;99.90;;;;;;4899894;29;20473;-80
2022/11/18 13:54:53;;;;;;;0.50;0.10;;;11.50;99.90;;;;;;4896358;29;20853;-79
2022/11/18 13:57:26;;;;;;;0.60;0.20;;;11.60;99.90;;;;;;4896207;29;20505;-80
2022/11/18 13:59:54;;;;;;;0.90;0.80;;;11.60;99.90;;;;;;4887072;29;20455;-79
2022/11/18 14:02:24;;;;;;;0.50;0.20;;;;;;;;;;4890235;29;20467;-80
2022/11/18 14:04:56;;;;;;;0.60;0.10;;;11.60;99.90;;;;;;4880172;29;20443;-80
2022/11/18 14:07:31;;;;;;;0.50;0.10;;;11.60;99.90;;;;;;4896286;29;20554;-80
2022/11/18 14:10:01;;;;;;;0.50;0.10;;;11.70;99.90;;;;;;4899102;29;20510;-79
2022/11/18 14:12:32;;;;;;;0.50;0.10;;;11.80;99.90;;;;;;4880588;29;20444;-79
2022/11/18 14:15:20;;;;;;;0.50;0.10;;;11.80;99.90;;;;;;4893620;29;20538;-80
2022/11/18 14:17:53;;;;;;;0.50;0.10;;;11.90;99.90;;;;;;4894613;29;20489;-80
2022/11/18 14:20:22;;;;;;;0.50;0.10;;;11.90;99.90;;;;;;4895246;29;20458;-80
2022/11/18 14:22:54;;;;;;;0.50;0.10;;;12.00;99.90;;;;;;4897937;29;20475;-79
2022/11/18 14:25:27;;;;;;;0.50;0.10;;;12.00;99.90;;;;;;4896327;29;20465;-79
2022/11/18 14:27:57;;;;;;;0.50;0.20;;;12.00;99.90;;;;;;4898768;29;20454;-80
2022/11/18 14:30:34;;;;;;;0.50;0.10;;;12.00;99.90;;;;;;4896130;29;20447;-79
2022/11/18 14:33:15;;;;;;;0.50;0.10;;;;;;;;;;4900513;29;20533;-78
2022/11/18 14:35:47;;;;;;;0.50;0.10;;;12.00;99.90;;;;;;4914429;29;20972;-79
2022/11/18 14:38:24;;;;;;;0.50;0.10;;;12.10;98.90;;;;;;4916323;29;20496;-79
2022/11/18 14:41:14;;;;;;;0.50;0.10;;;12.10;97.40;;;;;;4910861;29;20463;-79
2022/11/18 14:43:45;;;;;;;0.50;0.10;;;;;;;;;;4904885;29;20489;-79
2022/11/18 14:46:17;;;;;;;0.50;0.20;;;12.20;91.90;;;;;;4891471;29;20495;-79
2022/11/18 14:48:48;;;;;;;0.60;0.20;;;12.10;91.90;;;;;;4898981;29;20449;-79
2022/11/18 14:51:17;;;;;;;0.50;0.10;;;12.00;86.80;;;;;;4899933;29;20530;-79
2022/11/18 14:53:45;;;;;;;0.50;0.10;;;;;;;;;;4895968;29;20565;-80
2022/11/18 14:56:21;;;;;;;0.50;0.10;;;12.00;82.40;;;;;;4897019;29;20467;-80
2022/11/18 14:58:51;;;;;;;0.50;0.10;;;12.00;89.70;;;;;;4902264;29;20484;-79
2022/11/18 15:01:19;;;;;;;53.70;49.40;;;;;;;;;;4912439;29;20449;-79
2022/11/18 15:03:51;;;;;;;0.50;0.10;;;;;;;;;;4910001;29;20991;-80
2022/11/18 15:06:21;;;;;;;0.50;0.10;;;11.90;86.50;;;;;;4909680;29;20461;-80
2022/11/18 15:08:50;;;;;;;0.50;0.10;;;11.90;88.00;;;;;;4898233;29;20487;-80
2022/11/18 15:11:19;;;;;;;0.50;0.10;;;12.00;90.00;;;;;;4889236;29;20467;-79
2022/11/18 15:13:48;;;;;;;0.50;0.10;;;12.00;90.10;;;;;;4892892;29;20470;-80
2022/11/18 15:16:22;;;;;;;0.50;0.10;;;12.00;90.60;;;;;;4910591;29;20470;-80
2022/11/18 15:18:52;;;;;;;0.50;0.10;;;12.00;88.70;;;;;;4898875;29;20463;-79
2022/11/18 15:21:20;;;;;;;0.50;0.10;;;12.00;92.30;;;;;;4900861;29;20443;-80
2022/11/18 15:23:49;;;;;;;0.50;0.10;;;12.00;89.70;;;;;;4899633;29;20546;-80
2022/11/18 15:26:21;;;;;;;0.50;0.10;;;11.90;90.10;;;;;;4895037;29;20442;-80
2022/11/18 15:28:50;;;;;;;0.50;0.10;;;11.90;87.00;;;;;;4895373;29;20970;-80
2022/11/18 15:31:23;;;;;;;0.50;0.10;;;11.90;86.70;;;;;;4916191;29;20430;-79
2022/11/18 15:33:52;;;;;;;0.50;0.10;;;11.80;86.00;;;;;;4914538;29;20546;-79
2022/11/18 15:36:22;;;;;;;0.50;0.10;;;11.80;85.60;;;;;;4894067;29;20457;-80
2022/11/18 15:38:51;;;;;;;0.50;0.10;;;11.80;84.40;;;;;;4892230;29;20484;-79
2022/11/18 15:41:20;;;;;;;0.50;0.10;;;11.80;90.00;;;;;;4892985;29;20447;-80
2022/11/18 15:43:49;;;;;;;0.50;0.10;;;;;;;;;;4893234;29;20463;-79
2022/11/18 15:46:39;;;;;;;0.50;0.10;;;;;;;;;;4883871;29;20970;-80
2022/11/18 15:49:13;;;;;;;0.50;0.10;;;;;;;;;;4900037;29;20453;-79
2022/11/18 15:51:41;;;;;;;0.50;0.10;;;11.70;91.00;;;;;;4902950;29;20469;-79
2022/11/18 15:54:17;;;;;;;0.50;0.10;;;11.60;91.10;;;;;;4891000;29;20534;-80
2022/11/18 15:56:46;;;;;;;0.50;0.10;;;11.60;93.80;;;;;;4885947;29;20443;-79
2022/11/18 15:59:16;;;;;;;0.50;0.10;;;11.60;90.60;;;;;;4891347;29;20637;-80
2022/11/18 16:01:47;;;;;;;0.50;0.10;;;11.60;90.90;;;;;;4875347;29;20478;-80
2022/11/18 16:04:18;;;;;;;0.50;0.10;;;11.60;90.20;;;;;;4874892;29;20464;-81
2022/11/18 16:06:46;;;;;;;0.50;0.10;;;11.60;90.40;;;;;;4900257;29;20522;-80
2022/11/18 16:09:15;;;;;;;0.50;0.10;;;11.60;85.90;;;;;;4895836;29;20518;-81
2022/11/18 16:14:30;;;;;;;0.50;0.10;;;11.50;76.60;;;;;;4890946;29;20479;-77
2022/11/18 16:16:59;;;;;;;0.50;0.10;;;11.50;73.50;;;;;;4891405;29;20539;-79
2022/11/18 16:19:32;;;;;;;0.50;0.10;;;11.50;72.00;;;;;;4888948;29;20478;-79
2022/11/18 16:21:59;;;;;;;0.50;0.10;;;11.50;78.30;;;;;;4888172;29;20490;-80
2022/11/18 16:24:29;;;;;;;0.50;0.10;;;11.50;67.70;;;;;;4888049;29;20530;-83
2022/11/18 16:27:03;;;;;;;0.50;0.10;;;11.50;67.10;;;;;;4891655;29;20453;-82
2022/11/18 16:29:32;;;;;;;0.50;0.10;;;11.50;66.50;;;;;;4888223;29;20462;-81
2022/11/18 16:32:01;;;;;;;0.50;0.10;;;11.50;72.50;;;;;;4893614;29;20855;-81
2022/11/18 16:34:29;;;;;;;0.50;0.10;;;11.50;68.10;;;;;;4901953;29;20482;-81
2022/11/18 16:37:00;;;;;;;0.50;0.10;;;11.50;69.50;;;;;;4888941;29;20542;-82
2022/11/18 16:39:29;;;;;;;0.80;0.50;;;11.40;80.10;;;;;;4893448;29;20482;-80
2022/11/18 16:41:59;;;;;;;0.50;0.10;;;11.40;86.30;;;;;;4889443;29;20466;-80
2022/11/18 16:44:35;;;;;;;0.50;0.10;;;11.30;90.50;;;;;;4889612;29;20474;-79
2022/11/18 16:47:05;;;;;;;0.57;0.17;;;11.20;92.40;;;;;;4891600;29;20465;-81
2022/11/18 16:49:41;;;;;;;0.97;0.73;;;11.20;94.80;;;;;;4893902;29;20451;-80
2022/11/18 16:52:09;;;;;;;0.50;0.20;;;11.10;92.40;;;;;;4891901;29;20631;-79
2022/11/18 16:54:37;;;;;;;0.50;0.10;;;11.10;88.20;;;;;;4897325;29;20470;-79
2022/11/18 16:57:12;;;;;;;0.50;0.20;;;11.10;92.00;;;;;;4889937;29;20481;-81
2022/11/18 16:59:40;;;;;;;0.60;0.20;;;11.10;92.30;;;;;;4892801;29;20482;-81
2022/11/18 17:02:14;;;;;;;0.50;0.10;;;11.10;86.60;;;;;;4891726;29;20514;-82
2022/11/18 17:04:42;;;;;;;0.50;0.10;;;11.20;86.80;;;;;;4896409;29;20865;-82
2022/11/18 17:07:11;;;;;;;0.50;0.10;;;;;;;;;;4902137;29;20512;-81
2022/11/18 17:09:39;;;;;;;0.50;0.20;;;11.20;84.80;;;;;;4902358;29;20466;-80
2022/11/18 17:12:07;;;;;;;0.50;0.10;;;11.20;89.70;;;;;;4894026;29;20462;-80
2022/11/18 17:14:37;;;;;;;0.83;0.80;;;11.20;82.50;;;;;;4888183;29;20486;-78
2022/11/18 17:17:05;;;;;;;0.50;0.20;;;11.20;80.70;;;;;;4892911;29;20461;-81
2022/11/18 17:19:35;;;;;;;0.50;0.10;;;11.10;79.70;;;;;;4895812;29;20479;-81
2022/11/18 17:22:03;;;;;;;0.50;0.10;;;11.20;81.10;;;;;;4911118;29;20445;-79
2022/11/18 17:24:33;;;;;;;0.50;0.10;;;11.20;82.20;;;;;;4901310;29;20491;-80
2022/11/18 17:27:01;;;;;;;0.50;0.10;;;11.20;86.60;;;;;;4896340;29;20458;-80
2022/11/18 17:29:29;;;;;;;0.50;0.10;;;11.20;87.10;;;;;;4900403;29;20455;-80
2022/11/18 17:31:57;;;;;;;0.50;0.10;;;11.10;78.80;;;;;;4894588;29;20447;-79
2022/11/18 17:34:25;;;;;;;0.50;0.10;;;11.10;79.20;;;;;;4895546;29;20482;-79
2022/11/18 17:36:54;;;;;;;0.50;0.10;;;11.10;78.40;;;;;;4898736;29;20450;-81
2022/11/18 17:39:22;;;;;;;0.50;0.10;;;11.00;87.60;;;;;;4898120;29;20531;-80
2022/11/18 17:44:36;;;;;;;0.50;0.10;;;11.00;83.10;;;;;;4882766;29;20477;-77
2022/11/18 17:47:04;;;;;;;0.50;0.10;;;11.00;83.90;;;;;;4894881;29;20467;-80
2022/11/18 17:49:32;;;;;;;0.50;0.10;;;10.90;84.40;;;;;;4892886;29;20506;-79
2022/11/18 17:52:02;;;;;;;0.50;0.10;;;;;;;;;;4892519;29;20447;-79
2022/11/18 17:54:30;;;;;;;0.50;0.10;;;11.00;87.90;;;;;;4891785;29;20482;-78